Time;durP1;ratioP1;P1;durP2;ratioP2;P2;SDS_P1;SDS_P2;PMS_P1;PMS_P2;Temp;Humidity;BMP_temperature;BMP_pressure;BME280_temperature;BME280_humidity;BME280_pressure;Samples;Min_cycle;Max_cycle;Signal;HPM_P1;HPM_P2
2023/04/01 00:00:30;;;;;;;9.68;6.68;;;10.40;99.90;;;;;;5007368;28;20415;-76
2023/04/01 00:02:56;;;;;;;10.30;6.73;;;10.40;99.90;;;;;;5007473;28;20484;-75
2023/04/01 00:05:24;;;;;;;11.00;7.30;;;10.40;99.90;;;;;;5007008;28;20412;-75
2023/04/01 00:07:50;;;;;;;10.03;6.70;;;10.40;99.90;;;;;;5009878;28;20412;-76
2023/04/01 00:10:15;;;;;;;11.43;7.38;;;10.40;99.90;;;;;;5006008;28;20970;-75
2023/04/01 00:12:41;;;;;;;11.85;7.57;;;10.40;99.90;;;;;;5005684;28;20440;-75
2023/04/01 00:15:10;;;;;;;11.23;7.60;;;10.40;99.90;;;;;;5006764;28;20409;-75
2023/04/01 00:17:35;;;;;;;13.63;7.78;;;10.40;99.90;;;;;;4990050;28;20409;-75
2023/04/01 00:20:02;;;;;;;11.80;8.27;;;10.30;99.90;;;;;;5005897;28;20424;-75
2023/04/01 00:22:28;;;;;;;14.38;8.45;;;10.30;99.90;;;;;;4988228;28;20404;-75
2023/04/01 00:24:54;;;;;;;12.50;8.55;;;10.40;99.90;;;;;;5001783;28;20562;-75
2023/04/01 00:30:54;;;;;;;13.52;9.65;;;10.40;99.90;;;;;;5002399;28;20417;-75
2023/04/01 00:33:20;;;;;;;13.67;9.17;;;10.30;99.90;;;;;;5004467;28;20920;-75
2023/04/01 00:35:46;;;;;;;11.85;8.52;;;10.30;99.90;;;;;;5008865;28;20413;-75
2023/04/01 00:38:12;;;;;;;14.50;10.05;;;10.40;99.90;;;;;;4987904;28;20864;-75
2023/04/01 00:40:45;;;;;;;13.68;9.52;;;10.40;99.90;;;;;;5004073;28;20440;-75
2023/04/01 00:43:20;;;;;;;14.05;9.30;;;10.40;99.90;;;;;;5005623;28;20406;-75
2023/04/01 00:45:48;;;;;;;15.00;9.87;;;10.40;99.90;;;;;;5014829;28;20932;-75
2023/04/01 00:48:18;;;;;;;14.63;9.63;;;10.30;99.90;;;;;;5005515;28;20784;-75
2023/04/01 00:50:59;;;;;;;15.50;9.95;;;10.30;99.90;;;;;;5004143;28;20433;-75
2023/04/01 00:53:26;;;;;;;16.03;9.90;;;10.40;99.90;;;;;;5005423;28;20409;-76
2023/04/01 00:55:59;;;;;;;15.48;10.00;;;10.30;99.90;;;;;;5004378;28;20515;-75
2023/04/01 00:58:29;;;;;;;13.80;9.55;;;10.40;99.90;;;;;;4992307;28;20442;-75
2023/04/01 01:00:56;;;;;;;15.23;9.98;;;10.30;99.90;;;;;;4986459;28;20411;-75
2023/04/01 01:03:22;;;;;;;14.48;9.82;;;10.40;99.90;;;;;;5003727;28;20459;-75
2023/04/01 01:05:53;;;;;;;15.50;10.67;;;10.40;99.90;;;;;;5001550;28;20425;-76
2023/04/01 01:08:22;;;;;;;16.08;10.35;;;10.30;99.90;;;;;;4994943;28;20425;-75
2023/04/01 01:10:50;;;;;;;14.30;10.00;;;10.30;99.90;;;;;;5007590;28;20475;-75
2023/04/01 01:13:24;;;;;;;16.02;9.63;;;10.30;99.90;;;;;;5024080;28;20966;-75
2023/04/01 01:16:12;;;;;;;16.02;10.13;;;10.30;99.90;;;;;;5009465;28;20417;-75
2023/04/01 01:19:00;;;;;;;16.20;10.27;;;10.30;99.90;;;;;;5004576;28;20417;-75
2023/04/01 01:21:31;;;;;;;16.42;10.15;;;10.30;99.90;;;;;;4992386;28;20425;-75
2023/04/01 01:24:34;;;;;;;17.40;10.55;;;10.30;99.90;;;;;;5002810;28;20440;-75
2023/04/01 01:27:08;;;;;;;15.55;10.30;;;10.30;99.90;;;;;;5003032;28;20844;-75
2023/04/01 01:29:53;;;;;;;15.85;10.43;;;10.30;99.90;;;;;;5004166;28;20475;-75
2023/04/01 01:32:52;;;;;;;17.30;10.90;;;10.30;99.90;;;;;;4996144;28;20423;-76
2023/04/01 01:35:20;;;;;;;16.70;10.88;;;10.30;99.90;;;;;;5003714;28;20839;-75
2023/04/01 01:37:49;;;;;;;17.30;10.40;;;10.30;99.90;;;;;;5004948;28;20432;-75
2023/04/01 01:40:16;;;;;;;17.38;10.65;;;10.30;99.90;;;;;;4992157;28;20428;-75
2023/04/01 01:42:47;;;;;;;15.93;10.93;;;10.30;99.90;;;;;;5004874;28;20405;-75
2023/04/01 01:45:17;;;;;;;15.68;10.70;;;10.30;99.90;;;;;;5003947;28;20486;-75
2023/04/01 01:47:43;;;;;;;15.20;10.00;;;10.30;99.90;;;;;;5004404;28;20546;-75
2023/04/01 01:50:10;;;;;;;15.63;10.35;;;10.30;99.90;;;;;;5002993;28;20991;-75
2023/04/01 01:52:36;;;;;;;14.90;10.70;;;10.30;99.90;;;;;;4988164;28;20407;-75
2023/04/01 01:55:01;;;;;;;18.52;11.20;;;10.30;99.90;;;;;;5006023;28;20411;-75
2023/04/01 01:57:32;;;;;;;15.73;10.67;;;10.30;99.90;;;;;;5005983;28;20464;-75
2023/04/01 02:00:18;;;;;;;17.15;10.90;;;10.30;99.90;;;;;;4988008;28;20421;-76
2023/04/01 02:02:47;;;;;;;16.27;10.85;;;10.30;99.90;;;;;;5007094;28;20428;-75
2023/04/01 02:05:18;;;;;;;17.90;10.80;;;10.30;99.90;;;;;;5008431;28;20971;-75
2023/04/01 02:07:51;;;;;;;17.90;10.45;;;10.30;99.90;;;;;;4995788;28;20409;-75
2023/04/01 02:10:18;;;;;;;17.40;11.63;;;10.30;99.90;;;;;;5008048;28;20507;-76
2023/04/01 02:12:46;;;;;;;18.33;11.50;;;10.30;99.90;;;;;;5008842;28;20831;-76
2023/04/01 02:15:14;;;;;;;18.33;10.75;;;10.30;99.90;;;;;;5076037;28;20797;-76
2023/04/01 02:17:45;;;;;;;17.90;11.32;;;10.30;99.90;;;;;;5007546;28;20460;-75
2023/04/01 02:20:16;;;;;;;19.43;11.40;;;10.30;99.90;;;;;;5008207;28;20430;-75
2023/04/01 02:22:48;;;;;;;19.50;12.10;;;10.30;99.90;;;;;;5007730;28;20428;-75
2023/04/01 02:25:27;;;;;;;21.33;12.18;;;10.30;99.90;;;;;;5007652;28;20468;-75
2023/04/01 02:27:55;;;;;;;20.43;12.07;;;10.30;99.90;;;;;;5009459;28;20413;-75
2023/04/01 02:30:21;;;;;;;17.75;11.63;;;10.30;99.90;;;;;;5008538;28;20432;-76
2023/04/01 02:32:47;;;;;;;19.83;12.38;;;10.30;99.90;;;;;;5051056;28;20400;-75
2023/04/01 02:35:15;;;;;;;22.17;12.50;;;10.30;99.90;;;;;;5006370;28;20444;-75
2023/04/01 02:37:43;;;;;;;21.80;12.50;;;10.30;99.90;;;;;;5006261;28;20452;-76
2023/04/01 02:40:13;;;;;;;22.98;12.65;;;10.30;99.90;;;;;;5008174;28;20516;-75
2023/04/01 02:42:39;;;;;;;22.27;12.80;;;10.30;99.90;;;;;;5008205;28;20412;-75
2023/04/01 02:45:06;;;;;;;20.63;12.15;;;10.30;99.90;;;;;;5007445;28;20444;-75
2023/04/01 02:47:32;;;;;;;21.80;12.88;;;10.30;99.90;;;;;;5008763;28;20506;-75
2023/04/01 02:49:58;;;;;;;21.80;13.32;;;10.30;99.90;;;;;;5007344;28;20458;-75
2023/04/01 02:52:29;;;;;;;21.45;13.43;;;10.30;99.90;;;;;;5006801;28;20552;-75
2023/04/01 02:54:55;;;;;;;21.85;13.13;;;10.30;99.90;;;;;;4998182;28;20409;-76
2023/04/01 02:57:21;;;;;;;22.08;13.48;;;10.20;99.90;;;;;;4992352;28;20417;-75
2023/04/01 02:59:47;;;;;;;22.05;13.70;;;10.20;99.90;;;;;;4995762;28;20413;-75
2023/04/01 03:02:13;;;;;;;23.70;13.98;;;10.20;99.90;;;;;;5009784;28;20418;-75
2023/04/01 03:04:39;;;;;;;25.02;13.73;;;10.20;99.90;;;;;;5006861;28;20440;-75
2023/04/01 03:07:04;;;;;;;22.73;13.80;;;10.20;99.90;;;;;;4994005;28;20399;-75
2023/04/01 03:09:30;;;;;;;21.92;13.98;;;10.20;99.90;;;;;;5006049;28;20466;-75
2023/04/01 03:11:56;;;;;;;26.53;15.03;;;10.20;99.90;;;;;;5006025;28;20470;-75
2023/04/01 03:14:21;;;;;;;23.65;14.40;;;10.20;99.90;;;;;;5006342;28;20487;-75
2023/04/01 03:16:47;;;;;;;25.98;14.70;;;10.20;99.90;;;;;;5005123;28;20922;-75
2023/04/01 03:19:13;;;;;;;26.50;15.23;;;10.20;99.90;;;;;;5005622;28;20409;-75
2023/04/01 03:21:38;;;;;;;25.55;14.48;;;10.20;99.90;;;;;;5006218;28;20405;-75
2023/04/01 03:24:06;;;;;;;27.60;15.33;;;10.10;99.90;;;;;;5005188;28;20493;-75
2023/04/01 03:26:31;;;;;;;27.23;15.00;;;10.20;99.90;;;;;;5005470;28;20959;-75
2023/04/01 03:28:57;;;;;;;26.33;15.50;;;10.20;99.90;;;;;;5006336;28;20413;-75
2023/04/01 03:31:23;;;;;;;29.38;15.70;;;10.10;99.90;;;;;;4990730;28;20413;-75
2023/04/01 03:33:49;;;;;;;28.40;14.90;;;10.20;99.90;;;;;;5006628;28;20931;-74
2023/04/01 03:36:15;;;;;;;28.67;15.05;;;10.10;99.90;;;;;;5007746;28;21020;-75
2023/04/01 03:38:41;;;;;;;26.67;14.27;;;10.10;99.90;;;;;;5007100;28;20892;-75
2023/04/01 03:41:07;;;;;;;26.33;14.65;;;10.10;99.90;;;;;;5006877;28;20458;-75
2023/04/01 03:43:33;;;;;;;28.17;15.00;;;10.10;99.90;;;;;;5007537;28;20808;-75
2023/04/01 03:45:59;;;;;;;29.20;14.93;;;10.10;99.90;;;;;;5009099;28;20409;-75
2023/04/01 03:48:25;;;;;;;27.85;15.50;;;10.10;99.90;;;;;;4989699;28;20421;-75
2023/04/01 03:50:51;;;;;;;27.83;15.90;;;10.10;99.90;;;;;;5007559;28;20435;-75
2023/04/01 03:53:17;;;;;;;28.55;16.08;;;10.10;99.90;;;;;;5007089;28;20916;-75
2023/04/01 03:55:43;;;;;;;33.40;17.07;;;10.10;99.90;;;;;;5008286;28;20409;-75
2023/04/01 03:58:08;;;;;;;33.70;17.25;;;10.10;99.90;;;;;;5006120;28;20416;-75
2023/04/01 04:00:34;;;;;;;33.08;17.40;;;10.10;99.90;;;;;;5007335;28;20413;-75
2023/04/01 04:03:00;;;;;;;32.23;17.17;;;10.10;99.90;;;;;;5006737;28;20413;-75
2023/04/01 04:05:26;;;;;;;31.75;17.60;;;10.10;99.90;;;;;;5006071;28;20452;-75
2023/04/01 04:07:52;;;;;;;32.70;17.65;;;10.10;99.90;;;;;;5002870;28;20403;-75
2023/04/01 04:10:18;;;;;;;34.88;18.80;;;10.10;99.90;;;;;;5007719;28;20418;-75
2023/04/01 04:12:44;;;;;;;31.30;18.17;;;10.10;99.90;;;;;;5016851;28;20425;-75
2023/04/01 04:15:11;;;;;;;32.95;18.40;;;10.10;99.90;;;;;;5005233;28;20446;-75
2023/04/01 04:17:37;;;;;;;34.00;19.20;;;10.10;99.90;;;;;;5013145;28;20418;-74
2023/04/01 04:20:03;;;;;;;34.25;19.05;;;10.10;99.90;;;;;;5023774;28;20411;-75
2023/04/01 04:22:29;;;;;;;33.00;19.47;;;10.10;99.90;;;;;;5005309;28;20533;-74
2023/04/01 04:24:54;;;;;;;32.78;19.45;;;10.10;99.90;;;;;;5005366;28;20445;-74
2023/04/01 04:27:20;;;;;;;34.97;19.53;;;10.10;99.90;;;;;;5005815;28;20980;-75
2023/04/01 04:29:46;;;;;;;34.00;19.77;;;10.10;99.90;;;;;;5003244;28;20413;-75
2023/04/01 04:32:11;;;;;;;36.83;20.23;;;10.10;99.90;;;;;;5004539;28;20897;-75
2023/04/01 04:34:37;;;;;;;33.03;18.95;;;10.10;99.90;;;;;;4988667;28;20410;-75
2023/04/01 04:37:03;;;;;;;35.53;20.58;;;10.10;99.90;;;;;;5004872;28;20900;-75
2023/04/01 04:39:29;;;;;;;33.58;19.98;;;10.10;99.90;;;;;;5006541;28;20454;-75
2023/04/01 04:41:55;;;;;;;34.70;20.13;;;10.10;99.90;;;;;;5006261;28;20508;-75
2023/04/01 04:44:21;;;;;;;33.97;20.03;;;10.10;99.90;;;;;;5005734;28;20516;-75
2023/04/01 04:46:46;;;;;;;33.20;19.23;;;10.00;99.90;;;;;;5004982;28;20458;-75
2023/04/01 04:49:13;;;;;;;31.85;19.25;;;10.10;99.90;;;;;;5006736;28;20420;-75
2023/04/01 04:51:39;;;;;;;32.60;18.88;;;10.10;99.90;;;;;;5005688;28;20405;-75
2023/04/01 04:54:05;;;;;;;34.45;20.00;;;10.10;99.90;;;;;;5004935;28;20428;-75
2023/04/01 04:56:32;;;;;;;32.20;19.50;;;10.00;99.90;;;;;;5005841;28;20401;-75
2023/04/01 04:58:58;;;;;;;35.92;19.85;;;10.10;99.90;;;;;;5003787;28;20417;-75
2023/04/01 05:01:24;;;;;;;35.63;19.97;;;10.00;99.90;;;;;;4988400;28;20444;-75
2023/04/01 05:03:50;;;;;;;34.08;20.08;;;10.00;99.90;;;;;;5005304;28;20521;-75
2023/04/01 05:06:16;;;;;;;32.17;19.15;;;10.10;99.90;;;;;;4996899;28;20480;-75
2023/04/01 05:08:43;;;;;;;35.30;19.92;;;10.00;99.90;;;;;;5012828;28;20430;-75
2023/04/01 05:11:17;;;;;;;36.00;19.50;;;10.10;99.90;;;;;;5017030;28;20920;-75
2023/04/01 05:13:43;;;;;;;33.85;19.55;;;10.00;99.90;;;;;;5007880;28;21033;-75
2023/04/01 05:16:11;;;;;;;33.65;19.52;;;10.10;99.90;;;;;;5024530;28;20403;-75
2023/04/01 05:18:37;;;;;;;34.25;19.15;;;10.00;99.90;;;;;;5024024;28;20404;-75
2023/04/01 05:21:03;;;;;;;31.73;19.47;;;10.10;99.90;;;;;;5022993;28;20469;-75
2023/04/01 05:23:32;;;;;;;31.87;19.50;;;10.00;99.90;;;;;;5021013;28;20516;-75
2023/04/01 05:25:58;;;;;;;30.63;19.05;;;10.10;99.90;;;;;;5014969;28;20910;-75
2023/04/01 05:28:24;;;;;;;31.55;18.85;;;10.00;99.90;;;;;;5022793;28;20472;-75
2023/04/01 05:30:50;;;;;;;28.50;18.37;;;10.10;99.90;;;;;;5013474;28;20449;-75
2023/04/01 05:33:16;;;;;;;30.33;18.42;;;10.10;99.90;;;;;;5021170;28;20434;-75
2023/04/01 05:35:41;;;;;;;27.73;17.55;;;10.10;99.90;;;;;;5024129;28;21200;-75
2023/04/01 05:38:07;;;;;;;27.13;18.27;;;10.10;99.90;;;;;;5021941;28;20415;-75
2023/04/01 05:40:33;;;;;;;27.02;17.55;;;10.10;99.90;;;;;;5024058;28;20399;-76
2023/04/01 05:43:00;;;;;;;27.08;18.13;;;10.10;99.90;;;;;;5005719;28;20818;-75
2023/04/01 05:45:26;;;;;;;28.13;18.03;;;10.10;99.90;;;;;;5004623;28;20946;-75
2023/04/01 05:47:52;;;;;;;28.87;18.23;;;10.10;99.90;;;;;;5003988;28;20431;-75
2023/04/01 05:50:17;;;;;;;30.85;19.13;;;10.10;99.90;;;;;;5005582;28;20779;-75
2023/04/01 05:52:44;;;;;;;28.75;18.95;;;10.10;99.90;;;;;;5005707;28;20413;-75
2023/04/01 05:55:10;;;;;;;29.38;19.00;;;10.10;99.90;;;;;;5005365;28;20413;-75
2023/04/01 05:57:36;;;;;;;30.90;19.63;;;10.20;99.90;;;;;;5005874;28;20835;-75
2023/04/01 06:00:02;;;;;;;30.88;20.25;;;10.20;99.90;;;;;;5005206;28;20417;-75
2023/04/01 06:02:28;;;;;;;32.70;20.60;;;10.20;99.90;;;;;;5005670;28;20411;-75
2023/04/01 06:05:02;;;;;;;31.80;19.77;;;10.20;99.90;;;;;;5007110;28;20441;-75
2023/04/01 06:07:29;;;;;;;32.55;20.50;;;10.20;99.90;;;;;;5003981;28;20435;-75
2023/04/01 06:09:55;;;;;;;32.00;20.13;;;10.20;99.90;;;;;;5016311;28;20842;-75
2023/04/01 06:12:52;;;;;;;34.78;20.55;;;10.30;99.90;;;;;;5023861;28;20473;-75
2023/04/01 06:15:33;;;;;;;32.75;20.20;;;10.20;99.90;;;;;;5007068;28;20437;-75
2023/04/01 06:18:41;;;;;;;33.20;20.25;;;10.30;99.90;;;;;;5005256;28;20927;-75
2023/04/01 06:21:16;;;;;;;32.13;20.13;;;10.30;99.90;;;;;;4995980;28;20738;-75
2023/04/01 06:23:55;;;;;;;36.03;21.48;;;10.30;99.90;;;;;;5004181;28;20433;-76
2023/04/01 06:27:00;;;;;;;34.17;20.70;;;10.30;99.90;;;;;;4987601;28;20440;-75
2023/04/01 06:29:38;;;;;;;35.83;21.42;;;10.40;99.90;;;;;;5001539;28;20425;-76
2023/04/01 06:32:22;;;;;;;35.20;21.58;;;10.40;99.90;;;;;;5003197;28;20431;-76
2023/04/01 06:35:32;;;;;;;31.10;20.33;;;10.40;99.90;;;;;;5004003;28;20464;-76
2023/04/01 06:38:39;;;;;;;31.92;20.40;;;10.40;99.90;;;;;;4950240;28;20583;-76
2023/04/01 06:41:23;;;;;;;32.00;20.38;;;10.40;99.90;;;;;;4999769;28;20444;-76
2023/04/01 06:44:08;;;;;;;31.42;19.58;;;10.50;99.90;;;;;;5003272;28;20497;-76
2023/04/01 06:46:46;;;;;;;33.50;20.00;;;10.60;99.90;;;;;;5003801;28;20448;-76
2023/04/01 06:49:27;;;;;;;30.95;19.63;;;10.60;99.90;;;;;;4992088;28;20444;-76
2023/04/01 06:52:02;;;;;;;32.78;18.98;;;10.60;99.90;;;;;;5009006;28;20508;-76
2023/04/01 06:54:36;;;;;;;32.37;20.23;;;10.60;99.90;;;;;;5008098;28;20584;-76
2023/04/01 06:57:18;;;;;;;31.03;19.50;;;10.60;99.90;;;;;;5008335;28;20424;-76
2023/04/01 06:59:44;;;;;;;29.88;19.30;;;10.60;99.90;;;;;;5007832;28;20413;-76
2023/04/01 07:02:10;;;;;;;28.98;19.00;;;10.60;99.90;;;;;;5009498;28;20413;-76
2023/04/01 07:04:42;;;;;;;30.77;19.53;;;10.60;99.90;;;;;;5008062;28;20459;-76
2023/04/01 07:07:32;;;;;;;31.10;19.02;;;10.60;99.90;;;;;;4994606;28;20426;-76
2023/04/01 07:10:00;;;;;;;31.48;19.73;;;10.60;99.90;;;;;;5009470;28;20530;-76
2023/04/01 07:12:33;;;;;;;32.63;19.95;;;10.60;99.90;;;;;;4990617;28;20416;-76
2023/04/01 07:15:23;;;;;;;28.73;18.55;;;10.60;99.90;;;;;;4989835;28;20952;-76
2023/04/01 07:17:56;;;;;;;30.02;19.95;;;10.70;99.90;;;;;;5014556;28;20411;-77
2023/04/01 07:20:30;;;;;;;29.67;18.88;;;10.70;99.90;;;;;;5023563;28;20423;-77
2023/04/01 07:23:02;;;;;;;27.42;18.95;;;10.80;99.90;;;;;;5024384;28;20411;-77
2023/04/01 07:25:36;;;;;;;27.25;18.15;;;10.80;99.90;;;;;;5006500;28;20454;-74
2023/04/01 07:28:11;;;;;;;26.50;17.77;;;10.90;99.90;;;;;;5006335;28;20464;-75
2023/04/01 07:31:16;;;;;;;24.58;17.30;;;11.00;99.90;;;;;;5006125;28;20417;-76
2023/04/01 07:34:09;;;;;;;26.92;17.58;;;11.00;99.90;;;;;;5004958;28;20413;-76
2023/04/01 07:37:10;;;;;;;22.25;16.45;;;11.00;99.90;;;;;;5000985;28;20489;-76
2023/04/01 07:39:41;;;;;;;23.42;16.02;;;11.00;99.90;;;;;;5005731;28;20496;-75
2023/04/01 07:42:39;;;;;;;24.40;16.70;;;11.00;99.90;;;;;;5005901;28;20421;-75
2023/04/01 07:45:28;;;;;;;24.25;17.35;;;11.10;99.90;;;;;;4970008;28;20535;-75
2023/04/01 07:48:17;;;;;;;25.30;17.30;;;11.10;99.90;;;;;;5007107;28;20423;-75
2023/04/01 07:51:01;;;;;;;24.35;16.83;;;11.10;99.90;;;;;;5006698;28;20965;-76
2023/04/01 07:53:45;;;;;;;23.05;16.85;;;11.10;99.90;;;;;;4996778;28;20417;-75
2023/04/01 07:56:18;;;;;;;23.75;15.52;;;11.10;99.90;;;;;;5005693;28;20428;-76
2023/04/01 07:59:02;;;;;;;21.67;14.32;;;11.10;99.90;;;;;;5006845;28;20447;-76
2023/04/01 08:01:51;;;;;;;19.27;14.13;;;11.20;99.90;;;;;;4994762;28;20927;-76
2023/04/01 08:04:23;;;;;;;20.73;14.45;;;11.10;99.90;;;;;;5006030;28;20440;-76
2023/04/01 08:07:20;;;;;;;21.13;14.35;;;11.10;99.90;;;;;;4992821;28;20427;-76
2023/04/01 08:10:09;;;;;;;20.48;14.00;;;11.10;99.90;;;;;;5005568;28;20411;-76
2023/04/01 08:12:48;;;;;;;20.77;13.90;;;11.10;99.90;;;;;;5004922;28;20424;-75
2023/04/01 08:15:48;;;;;;;19.40;13.45;;;11.20;99.90;;;;;;5006974;28;20421;-75
2023/04/01 08:18:40;;;;;;;16.65;12.85;;;11.20;99.90;;;;;;5024362;28;20416;-76
2023/04/01 08:21:16;;;;;;;15.88;11.85;;;11.30;99.90;;;;;;5016084;28;20535;-76
2023/04/01 08:23:48;;;;;;;14.13;10.90;;;11.40;99.90;;;;;;4988538;28;20435;-76
2023/04/01 08:26:26;;;;;;;8.27;5.27;;;11.50;99.90;;;;;;5005138;28;20551;-75
2023/04/01 08:28:58;;;;;;;6.37;4.27;;;11.50;99.90;;;;;;4999524;28;20428;-76
2023/04/01 08:31:38;;;;;;;5.47;4.00;;;11.30;99.90;;;;;;5023155;28;20438;-75
2023/04/01 08:34:10;;;;;;;6.53;4.40;;;11.10;99.90;;;;;;5023986;28;20503;-76
2023/04/01 08:36:40;;;;;;;5.32;3.78;;;10.90;99.90;;;;;;5010363;28;20934;-76
2023/04/01 08:39:30;;;;;;;6.15;3.70;;;10.80;99.90;;;;;;5024045;28;20423;-76
2023/04/01 08:42:08;;;;;;;6.32;3.50;;;10.60;99.90;;;;;;4992990;28;20501;-75
2023/04/01 08:44:52;;;;;;;4.88;3.10;;;10.50;99.90;;;;;;5019375;28;20448;-76
2023/04/01 08:47:56;;;;;;;4.13;2.30;;;10.40;99.90;;;;;;5023679;28;20427;-76
2023/04/01 08:50:46;;;;;;;3.92;2.40;;;10.30;99.90;;;;;;5005316;28;20422;-75
2023/04/01 08:53:49;;;;;;;4.50;2.53;;;10.20;99.90;;;;;;4982344;28;20773;-75
2023/04/01 08:56:22;;;;;;;4.22;2.58;;;10.20;99.90;;;;;;5006484;28;20423;-75
2023/04/01 08:59:13;;;;;;;4.88;2.42;;;10.00;99.90;;;;;;5023502;28;20423;-75
2023/04/01 09:02:15;;;;;;;6.13;2.78;;;10.00;99.90;;;;;;5003440;28;20942;-75
2023/04/01 09:04:50;;;;;;;3.50;2.40;;;10.00;99.90;;;;;;4992564;28;20493;-75
2023/04/01 09:07:28;;;;;;;4.25;2.47;;;10.10;99.90;;;;;;4993237;28;20423;-75
2023/04/01 09:10:04;;;;;;;5.57;2.57;;;10.00;99.90;;;;;;5022902;28;21023;-75
2023/04/01 09:12:51;;;;;;;5.00;2.90;;;10.00;99.90;;;;;;5021157;28;20998;-76
2023/04/01 09:15:44;;;;;;;4.70;2.60;;;10.00;99.90;;;;;;5009720;28;20425;-75
2023/04/01 09:18:22;;;;;;;4.25;2.50;;;10.10;99.90;;;;;;5010411;28;20451;-75
2023/04/01 09:20:54;;;;;;;2.97;2.10;;;10.20;99.90;;;;;;5007492;28;20924;-75
2023/04/01 09:23:53;;;;;;;3.20;1.60;;;10.20;99.90;;;;;;5017361;28;20794;-76
2023/04/01 09:26:30;;;;;;;3.33;2.00;;;10.20;99.90;;;;;;5005909;28;20423;-75
2023/04/01 09:29:22;;;;;;;3.58;1.95;;;10.20;99.90;;;;;;4998710;28;20427;-75
2023/04/01 09:32:18;;;;;;;4.72;2.00;;;10.20;99.90;;;;;;5010040;28;20850;-75
2023/04/01 09:35:19;;;;;;;3.65;1.90;;;10.20;99.90;;;;;;5021657;28;20432;-75
2023/04/01 09:38:18;;;;;;;3.83;1.70;;;10.20;99.90;;;;;;5044437;28;20502;-75
2023/04/01 09:41:20;;;;;;;3.30;1.40;;;10.20;99.90;;;;;;5022720;28;20427;-75
2023/04/01 09:44:22;;;;;;;3.85;1.50;;;10.10;99.90;;;;;;4993140;28;20448;-75
2023/04/01 09:47:30;;;;;;;2.72;1.63;;;10.10;99.90;;;;;;4999267;28;20434;-75
2023/04/01 09:50:30;;;;;;;3.00;1.33;;;10.10;99.90;;;;;;5021652;28;20990;-75
2023/04/01 09:53:08;;;;;;;1.90;1.00;;;10.20;99.90;;;;;;5008447;28;20434;-75
2023/04/01 09:56:02;;;;;;;2.33;1.00;;;10.30;99.90;;;;;;5021819;28;20419;-75
2023/04/01 09:59:03;;;;;;;2.30;1.00;;;10.30;99.90;;;;;;4994451;28;20422;-75
2023/04/01 10:01:35;;;;;;;3.15;1.10;;;10.30;99.90;;;;;;4993744;28;20497;-75
2023/04/01 10:04:36;;;;;;;1.60;0.70;;;10.30;99.90;;;;;;4986427;28;20452;-75
2023/04/01 10:07:17;;;;;;;1.95;0.70;;;10.40;99.90;;;;;;5003726;28;20778;-75
2023/04/01 10:09:42;;;;;;;1.60;0.75;;;10.50;99.90;;;;;;5002672;28;20431;-75
2023/04/01 10:12:38;;;;;;;1.93;0.80;;;10.50;99.90;;;;;;5015397;28;20789;-75
2023/04/01 10:15:13;;;;;;;1.63;0.90;;;10.40;99.90;;;;;;5015576;28;21001;-75
2023/04/01 10:17:41;;;;;;;3.13;0.98;;;10.40;99.90;;;;;;5002604;28;20413;-75
2023/04/01 10:20:55;;;;;;;1.92;0.90;;;10.30;99.90;;;;;;5003911;28;20440;-75
2023/04/01 10:23:40;;;;;;;2.72;1.38;;;10.30;99.90;;;;;;5016825;28;20496;-75
2023/04/01 10:26:17;;;;;;;3.30;1.50;;;10.20;99.90;;;;;;5005760;28;20433;-75
2023/04/01 10:28:55;;;;;;;2.88;1.52;;;10.30;99.90;;;;;;5006332;28;20420;-75
2023/04/01 10:31:48;;;;;;;3.42;1.70;;;10.20;99.90;;;;;;5005646;28;20463;-75
2023/04/01 10:34:34;;;;;;;3.10;1.80;;;10.20;99.90;;;;;;5005468;28;20420;-75
2023/04/01 10:37:22;;;;;;;3.58;2.00;;;10.10;99.90;;;;;;4995047;28;20413;-75
2023/04/01 10:40:29;;;;;;;4.20;1.73;;;10.10;99.90;;;;;;5007411;28;20504;-75
2023/04/01 10:43:38;;;;;;;3.75;1.98;;;10.00;99.90;;;;;;5026556;28;20485;-75
2023/04/01 10:46:39;;;;;;;3.45;1.77;;;10.00;99.90;;;;;;5004912;28;20421;-75
2023/04/01 10:49:16;;;;;;;3.00;1.33;;;10.00;99.90;;;;;;4989365;28;20916;-75
2023/04/01 10:52:00;;;;;;;3.37;1.90;;;10.10;99.90;;;;;;4978475;28;20939;-75
2023/04/01 10:54:45;;;;;;;2.50;1.30;;;10.00;99.90;;;;;;5006545;28;20416;-75
2023/04/01 10:57:34;;;;;;;3.22;1.20;;;10.00;99.90;;;;;;5006909;28;20429;-75
2023/04/01 11:00:38;;;;;;;4.40;1.40;;;10.10;99.90;;;;;;4998057;28;20421;-76
2023/04/01 11:03:11;;;;;;;3.80;1.20;;;10.10;99.90;;;;;;4996138;28;20429;-76
2023/04/01 11:06:04;;;;;;;3.55;1.40;;;10.10;99.90;;;;;;5003674;28;20439;-76
2023/04/01 11:09:20;;;;;;;2.50;1.05;;;10.10;99.90;;;;;;4999989;28;20453;-75
2023/04/01 11:11:52;;;;;;;2.90;1.00;;;10.10;99.90;;;;;;5070397;28;20463;-76
2023/04/01 11:14:42;;;;;;;2.55;0.80;;;10.10;99.90;;;;;;5015764;27;20410;-75
2023/04/01 11:17:11;;;;;;;2.63;0.90;;;10.10;99.90;;;;;;4990288;28;20508;-76
2023/04/01 11:19:55;;;;;;;2.20;0.90;;;10.20;99.90;;;;;;5005721;28;20424;-75
2023/04/01 11:22:53;;;;;;;2.88;0.73;;;10.20;99.90;;;;;;5010078;28;20486;-75
2023/04/01 11:25:30;;;;;;;1.63;0.57;;;10.20;99.90;;;;;;5028570;28;20472;-75
2023/04/01 11:28:02;;;;;;;2.28;0.80;;;10.30;99.90;;;;;;5005216;28;20424;-76
2023/04/01 11:30:58;;;;;;;1.80;0.80;;;10.40;99.90;;;;;;4992972;28;20955;-75
2023/04/01 11:33:45;;;;;;;1.23;0.77;;;10.40;99.90;;;;;;5004867;28;20457;-75
2023/04/01 11:36:53;;;;;;;1.88;0.80;;;10.40;99.90;;;;;;5005394;28;20429;-75
2023/04/01 11:39:43;;;;;;;2.03;1.00;;;10.50;99.90;;;;;;5034181;28;20436;-75
2023/04/01 11:42:19;;;;;;;1.40;0.70;;;10.50;99.90;;;;;;5005478;28;20984;-75
2023/04/01 11:45:07;;;;;;;1.97;1.00;;;10.60;99.90;;;;;;5005280;28;20566;-75
2023/04/01 11:47:49;;;;;;;1.63;0.70;;;10.60;99.90;;;;;;5006682;28;20964;-75
2023/04/01 11:50:23;;;;;;;1.90;0.88;;;10.70;99.90;;;;;;5005336;28;20451;-75
2023/04/01 11:53:23;;;;;;;3.05;0.90;;;10.70;99.90;;;;;;5004720;28;20478;-75
2023/04/01 11:56:26;;;;;;;2.00;0.88;;;10.70;99.90;;;;;;5005065;28;20928;-75
2023/04/01 11:58:54;;;;;;;2.03;0.80;;;10.70;99.90;;;;;;5006317;28;20424;-75
2023/04/01 12:01:49;;;;;;;1.90;0.80;;;10.60;99.90;;;;;;5006333;28;20500;-75
2023/04/01 12:04:36;;;;;;;2.70;1.27;;;10.50;99.90;;;;;;5008668;28;20484;-75
2023/04/01 12:07:59;;;;;;;1.52;0.90;;;10.50;99.90;;;;;;5005161;28;20432;-75
2023/04/01 12:10:28;;;;;;;1.58;0.80;;;10.40;99.90;;;;;;5069733;28;20442;-75
2023/04/01 12:13:35;;;;;;;1.90;0.82;;;10.30;99.90;;;;;;5069931;28;20410;-75
2023/04/01 12:16:27;;;;;;;1.80;0.73;;;10.50;99.90;;;;;;5020006;28;20478;-75
2023/04/01 12:19:14;;;;;;;2.40;0.93;;;10.60;99.90;;;;;;5005996;28;20443;-75
2023/04/01 12:22:17;;;;;;;1.85;0.68;;;10.70;99.90;;;;;;5005315;28;20425;-75
2023/04/01 12:25:24;;;;;;;1.73;0.85;;;10.70;99.90;;;;;;5017542;28;20445;-76
2023/04/01 12:28:20;;;;;;;1.90;0.77;;;10.60;99.90;;;;;;5049456;28;20442;-75
2023/04/01 12:31:03;;;;;;;2.10;0.68;;;10.70;99.90;;;;;;4995829;28;20412;-74
2023/04/01 12:33:52;;;;;;;2.45;0.63;;;10.70;99.90;;;;;;5004742;28;20417;-75
2023/04/01 12:36:46;;;;;;;1.85;0.75;;;10.70;99.90;;;;;;5004607;28;20432;-75
2023/04/01 12:39:31;;;;;;;2.78;0.75;;;10.80;99.90;;;;;;5005434;28;20425;-75
2023/04/01 12:42:19;;;;;;;2.28;0.70;;;10.80;99.90;;;;;;4977921;28;20421;-75
2023/04/01 12:45:06;;;;;;;1.60;0.70;;;10.80;99.90;;;;;;5010534;28;20796;-75
2023/04/01 12:48:16;;;;;;;2.20;0.70;;;10.80;99.90;;;;;;5021175;28;20782;-75
2023/04/01 12:51:21;;;;;;;1.70;0.70;;;10.80;99.90;;;;;;5011244;28;20520;-75
2023/04/01 12:54:15;;;;;;;1.55;0.88;;;10.70;99.90;;;;;;5007360;28;20490;-75
2023/04/01 12:57:10;;;;;;;1.60;0.70;;;10.70;99.90;;;;;;5005689;28;20427;-75
2023/04/01 12:59:57;;;;;;;2.25;0.60;;;10.70;99.90;;;;;;5006084;28;20429;-76
2023/04/01 13:02:47;;;;;;;2.13;0.50;;;10.70;99.90;;;;;;5008374;28;20427;-75
2023/04/01 13:05:37;;;;;;;1.30;0.60;;;10.70;99.90;;;;;;5005743;28;21067;-75
2023/04/01 13:08:16;;;;;;;2.42;0.50;;;10.60;99.90;;;;;;4994461;28;20928;-75
2023/04/01 13:11:09;;;;;;;1.93;0.70;;;10.60;99.90;;;;;;5005831;28;20417;-75
2023/04/01 13:14:04;;;;;;;1.70;0.60;;;10.70;99.90;;;;;;5005582;28;20428;-75
2023/04/01 13:16:39;;;;;;;1.83;0.60;;;10.70;99.90;;;;;;5006077;28;20496;-75
2023/04/01 13:19:31;;;;;;;2.07;0.67;;;10.80;99.90;;;;;;5004399;28;20409;-75
2023/04/01 13:22:01;;;;;;;1.58;0.50;;;10.80;99.90;;;;;;5004518;28;20449;-76
2023/04/01 13:24:33;;;;;;;0.82;0.40;;;10.90;99.90;;;;;;5003762;28;20436;-75
2023/04/01 13:27:27;;;;;;;1.55;0.50;;;10.90;99.90;;;;;;5004853;28;20792;-75
2023/04/01 13:30:44;;;;;;;1.70;0.40;;;10.90;99.90;;;;;;5003885;28;21324;-76
2023/04/01 13:33:27;;;;;;;2.72;0.40;;;11.00;99.90;;;;;;5030652;28;20425;-76